Time;durP1;ratioP1;P1;durP2;ratioP2;P2;SDS_P1;SDS_P2;PMS_P1;PMS_P2;Temp;Humidity;BMP_temperature;BMP_pressure;BME280_temperature;BME280_humidity;BME280_pressure;Samples;Min_cycle;Max_cycle;Signal;HPM_P1;HPM_P2
2022/01/31 00:00:15;;;;;;;0.00;0.00;;;6.00;94.40;;;;;;4964528;28;20294;-74
2022/01/31 00:02:42;;;;;;;0.00;0.00;;;5.90;94.70;;;;;;4963365;29;20035;-75
2022/01/31 00:05:09;;;;;;;0.00;0.00;;;5.90;95.40;;;;;;4963884;28;20034;-77
2022/01/31 00:07:35;;;;;;;0.00;0.00;;;5.90;94.80;;;;;;4964487;28;20293;-75
2022/01/31 00:10:06;;;;;;;0.00;0.00;;;5.90;94.20;;;;;;4964393;28;20030;-76
2022/01/31 00:12:36;;;;;;;0.00;0.00;;;5.90;94.70;;;;;;4962772;29;20027;-74
2022/01/31 00:15:04;;;;;;;0.00;0.00;;;5.90;94.40;;;;;;4963172;29;20023;-75
2022/01/31 00:17:29;;;;;;;0.00;0.00;;;5.90;95.00;;;;;;4963486;28;20015;-76
2022/01/31 00:19:55;;;;;;;0.00;0.00;;;5.90;94.30;;;;;;4979370;28;20054;-75
2022/01/31 00:22:21;;;;;;;0.00;0.00;;;5.90;94.60;;;;;;4972217;28;20078;-74
2022/01/31 00:24:47;;;;;;;0.00;0.00;;;5.90;94.40;;;;;;4983519;28;20026;-75
2022/01/31 00:27:12;;;;;;;0.00;0.00;;;5.80;93.60;;;;;;4982852;28;20193;-76
2022/01/31 00:29:38;;;;;;;0.00;0.00;;;5.90;94.00;;;;;;4965785;28;20256;-75
2022/01/31 00:32:04;;;;;;;0.00;0.00;;;5.80;94.50;;;;;;4983635;28;20029;-75
2022/01/31 00:34:31;;;;;;;0.00;0.00;;;5.80;94.50;;;;;;4982460;28;20074;-74
2022/01/31 00:36:57;;;;;;;0.00;0.00;;;5.80;94.30;;;;;;4983112;28;20026;-74
2022/01/31 00:39:22;;;;;;;0.00;0.00;;;5.80;94.80;;;;;;4965171;28;20351;-75
2022/01/31 00:41:48;;;;;;;0.00;0.00;;;5.80;94.90;;;;;;4982965;28;20050;-76
2022/01/31 00:46:45;;;;;;;0.00;0.00;;;5.90;93.10;;;;;;4982329;28;20019;-75
2022/01/31 00:49:17;;;;;;;0.00;0.00;;;5.90;94.10;;;;;;4982535;28;20066;-76
2022/01/31 00:51:43;;;;;;;0.00;0.00;;;5.80;93.40;;;;;;4965874;28;20046;-75
2022/01/31 00:54:09;;;;;;;0.00;0.00;;;5.90;93.70;;;;;;4982501;28;20324;-76
2022/01/31 00:56:34;;;;;;;0.00;0.00;;;5.90;93.10;;;;;;4965610;28;20065;-75
2022/01/31 00:59:00;;;;;;;0.00;0.00;;;5.90;93.70;;;;;;4965263;28;20187;-75
2022/01/31 01:01:26;;;;;;;0.00;0.00;;;5.90;93.10;;;;;;4982262;28;20187;-75
2022/01/31 01:03:51;;;;;;;0.00;0.00;;;5.90;93.30;;;;;;4965439;28;20054;-75
2022/01/31 01:06:17;;;;;;;0.00;0.00;;;5.80;93.90;;;;;;4982474;28;20269;-76
2022/01/31 01:08:43;;;;;;;0.00;0.00;;;5.70;95.00;;;;;;4965121;28;20146;-77
2022/01/31 01:11:09;;;;;;;0.00;0.00;;;5.70;94.20;;;;;;4982301;28;20023;-79
2022/01/31 01:13:35;;;;;;;0.00;0.00;;;5.60;94.10;;;;;;4982696;28;20023;-77
2022/01/31 01:16:00;;;;;;;0.00;0.00;;;5.60;95.20;;;;;;4965294;28;20237;-77
2022/01/31 01:18:26;;;;;;;0.00;0.00;;;5.60;95.00;;;;;;4964682;28;20046;-78
2022/01/31 01:20:52;;;;;;;0.00;0.00;;;5.50;95.10;;;;;;4982459;28;20018;-77
2022/01/31 01:23:17;;;;;;;0.00;0.00;;;5.40;95.40;;;;;;4964224;28;20189;-78
2022/01/31 01:25:43;;;;;;;0.00;0.00;;;5.40;95.30;;;;;;4982258;28;20018;-76
2022/01/31 01:28:09;;;;;;;0.00;0.00;;;5.30;94.90;;;;;;4981383;28;20037;-76
2022/01/31 01:30:35;;;;;;;0.00;0.00;;;5.30;95.10;;;;;;4965091;28;20387;-76
2022/01/31 01:33:07;;;;;;;0.00;0.00;;;5.20;94.30;;;;;;4964866;28;20050;-77
2022/01/31 01:35:34;;;;;;;0.00;0.00;;;5.20;95.00;;;;;;4982288;28;20078;-77
2022/01/31 01:38:06;;;;;;;0.00;0.00;;;5.20;95.30;;;;;;4981960;28;20298;-76
2022/01/31 01:40:37;;;;;;;0.00;0.00;;;5.10;95.20;;;;;;4981578;28;20168;-75
2022/01/31 01:43:03;;;;;;;0.00;0.00;;;5.20;95.50;;;;;;4980616;28;20038;-75
2022/01/31 01:45:29;;;;;;;0.00;0.00;;;5.10;95.00;;;;;;4981404;28;20305;-76
2022/01/31 01:47:55;;;;;;;0.00;0.00;;;5.10;94.90;;;;;;4981923;28;20091;-75
2022/01/31 01:50:20;;;;;;;0.00;0.00;;;5.10;95.40;;;;;;4981328;28;20030;-75
2022/01/31 01:52:46;;;;;;;0.00;0.00;;;5.10;95.30;;;;;;4981791;28;20023;-75
2022/01/31 01:55:12;;;;;;;0.00;0.00;;;5.00;95.20;;;;;;4981111;28;20221;-76
2022/01/31 01:57:39;;;;;;;0.00;0.00;;;5.00;95.60;;;;;;4963296;28;20018;-76
2022/01/31 02:00:08;;;;;;;0.00;0.00;;;5.00;95.80;;;;;;4964575;28;20073;-76
2022/01/31 02:02:34;;;;;;;0.00;0.00;;;5.00;95.40;;;;;;4981535;28;20078;-76
2022/01/31 02:05:00;;;;;;;0.00;0.00;;;4.90;96.00;;;;;;4981465;28;20030;-76
2022/01/31 02:07:26;;;;;;;0.00;0.00;;;4.90;95.60;;;;;;4981007;28;20312;-76
2022/01/31 02:09:56;;;;;;;0.00;0.00;;;4.90;95.30;;;;;;4981207;28;20027;-76
2022/01/31 02:12:24;;;;;;;0.00;0.00;;;4.90;95.20;;;;;;4980910;28;20023;-76
2022/01/31 02:14:49;;;;;;;0.00;0.00;;;4.90;95.80;;;;;;4981440;28;20078;-75
2022/01/31 02:17:15;;;;;;;0.00;0.00;;;4.90;94.80;;;;;;4980940;28;20050;-75
2022/01/31 02:19:41;;;;;;;0.00;0.00;;;4.90;95.80;;;;;;4981004;28;20065;-75
2022/01/31 02:22:06;;;;;;;0.00;0.00;;;4.80;95.50;;;;;;4980890;28;20054;-75
2022/01/31 02:24:32;;;;;;;0.00;0.00;;;4.90;95.30;;;;;;4963448;28;20037;-76
2022/01/31 02:27:01;;;;;;;0.00;0.00;;;4.80;95.30;;;;;;4980989;28;20234;-76
2022/01/31 02:29:26;;;;;;;0.00;0.00;;;4.80;95.20;;;;;;4980466;28;20027;-76
2022/01/31 02:31:52;;;;;;;0.00;0.00;;;4.80;95.00;;;;;;4963676;28;20019;-76
2022/01/31 02:34:18;;;;;;;0.00;0.00;;;4.80;94.40;;;;;;4980360;28;20186;-76
2022/01/31 02:36:44;;;;;;;0.00;0.00;;;4.80;95.70;;;;;;4963749;28;20291;-75
2022/01/31 02:39:10;;;;;;;0.00;0.00;;;4.80;94.70;;;;;;4980473;28;20031;-78
2022/01/31 02:41:44;;;;;;;0.00;0.00;;;4.80;95.50;;;;;;4963711;28;20019;-75
2022/01/31 02:44:15;;;;;;;0.00;0.00;;;4.80;95.30;;;;;;4980272;28;20052;-75
2022/01/31 02:46:50;;;;;;;0.00;0.00;;;4.80;94.90;;;;;;4963777;28;20378;-75
2022/01/31 02:49:18;;;;;;;0.00;0.00;;;4.80;95.00;;;;;;4979353;28;20038;-74
2022/01/31 02:51:48;;;;;;;0.00;0.00;;;4.80;94.80;;;;;;4980978;28;20309;-76
2022/01/31 02:54:14;;;;;;;0.00;0.00;;;4.80;95.40;;;;;;4980144;28;20265;-78
2022/01/31 02:56:40;;;;;;;0.00;0.00;;;4.80;95.30;;;;;;4980384;28;20034;-76
2022/01/31 02:59:06;;;;;;;0.00;0.00;;;4.80;95.60;;;;;;4963501;28;20128;-76
2022/01/31 03:01:36;;;;;;;0.00;0.00;;;4.80;95.50;;;;;;4980391;28;20213;-75
2022/01/31 03:04:03;;;;;;;0.00;0.00;;;4.80;95.00;;;;;;4980589;28;20366;-75
2022/01/31 03:06:28;;;;;;;0.00;0.00;;;4.80;95.10;;;;;;4962356;28;20026;-78
2022/01/31 03:08:54;;;;;;;0.00;0.00;;;4.80;94.60;;;;;;4965129;28;20198;-76
2022/01/31 03:11:20;;;;;;;0.00;0.00;;;4.80;94.50;;;;;;4986301;28;20046;-79
2022/01/31 03:13:45;;;;;;;0.00;0.00;;;4.90;93.90;;;;;;4969772;28;20023;-77
2022/01/31 03:16:11;;;;;;;0.00;0.00;;;4.90;94.70;;;;;;4986339;28;20198;-78
2022/01/31 03:18:37;;;;;;;0.00;0.00;;;4.90;94.90;;;;;;4969663;28;20314;-76
2022/01/31 03:21:03;;;;;;;0.00;0.00;;;4.80;94.50;;;;;;4987017;28;20320;-76
2022/01/31 03:23:28;;;;;;;0.00;0.00;;;4.80;94.70;;;;;;4968681;28;20245;-76
2022/01/31 03:25:54;;;;;;;0.00;0.00;;;4.80;94.50;;;;;;4987437;28;20206;-77
2022/01/31 03:28:20;;;;;;;0.00;0.00;;;4.80;94.90;;;;;;4986447;28;20090;-79
2022/01/31 03:30:45;;;;;;;0.00;0.00;;;4.80;95.00;;;;;;4969906;28;20297;-78
2022/01/31 03:33:11;;;;;;;0.00;0.00;;;4.80;94.20;;;;;;4969073;28;20209;-78
2022/01/31 03:35:37;;;;;;;0.00;0.00;;;4.70;93.80;;;;;;4986949;28;20224;-75
2022/01/31 03:38:03;;;;;;;0.00;0.00;;;4.70;94.20;;;;;;4969653;28;20226;-76
2022/01/31 03:40:29;;;;;;;0.00;0.00;;;4.70;94.10;;;;;;4986122;28;20237;-76
2022/01/31 03:42:55;;;;;;;0.00;0.00;;;4.60;94.50;;;;;;4969579;28;20187;-76
2022/01/31 03:45:20;;;;;;;0.00;0.00;;;4.60;94.50;;;;;;4984903;28;20045;-75
2022/01/31 03:47:47;;;;;;;0.00;0.00;;;4.60;94.70;;;;;;4986817;28;20035;-76
2022/01/31 03:50:18;;;;;;;0.00;0.00;;;4.60;95.00;;;;;;4986032;28;20298;-77
2022/01/31 03:52:44;;;;;;;0.00;0.00;;;4.60;95.10;;;;;;4985554;28;20037;-76
2022/01/31 03:55:11;;;;;;;0.00;0.00;;;4.60;94.70;;;;;;4968956;28;20085;-77
2022/01/31 03:57:37;;;;;;;0.00;0.00;;;4.60;94.70;;;;;;4986329;28;20297;-75
2022/01/31 04:00:06;;;;;;;0.00;0.00;;;4.60;94.80;;;;;;4986469;28;20057;-77
2022/01/31 04:02:32;;;;;;;0.00;0.00;;;4.60;95.50;;;;;;4985576;28;20333;-75
2022/01/31 04:04:58;;;;;;;0.00;0.00;;;4.60;95.40;;;;;;4986943;28;20022;-78
2022/01/31 04:07:24;;;;;;;0.00;0.00;;;4.60;94.90;;;;;;4985847;28;20191;-75
2022/01/31 04:09:49;;;;;;;0.00;0.00;;;4.50;95.10;;;;;;4969179;28;20026;-75
2022/01/31 04:12:15;;;;;;;0.00;0.00;;;4.60;95.00;;;;;;4985897;28;20235;-74
2022/01/31 04:14:41;;;;;;;0.00;0.00;;;4.50;95.20;;;;;;4986525;28;20323;-73
2022/01/31 04:17:09;;;;;;;0.00;0.00;;;4.50;95.10;;;;;;4969256;28;20298;-76
2022/01/31 04:19:35;;;;;;;0.00;0.00;;;4.50;94.50;;;;;;4986254;28;20046;-76
2022/01/31 04:22:00;;;;;;;0.00;0.00;;;4.60;95.20;;;;;;4964717;28;20047;-77
2022/01/31 04:24:32;;;;;;;0.00;0.00;;;4.50;94.90;;;;;;4983468;28;20027;-77
2022/01/31 04:27:05;;;;;;;0.00;0.00;;;4.50;95.30;;;;;;4983130;28;20045;-78
2022/01/31 04:29:32;;;;;;;0.00;0.00;;;4.50;95.60;;;;;;4981878;28;20268;-77
2022/01/31 04:31:58;;;;;;;0.00;0.00;;;4.50;95.90;;;;;;4983269;28;20043;-76
2022/01/31 04:34:24;;;;;;;0.00;0.00;;;4.50;96.00;;;;;;4983080;28;20300;-76
2022/01/31 04:36:50;;;;;;;0.00;0.00;;;4.50;96.40;;;;;;4983013;28;20101;-76
2022/01/31 04:39:18;;;;;;;0.00;0.00;;;4.50;96.90;;;;;;4982700;28;20023;-76
2022/01/31 04:41:46;;;;;;;0.00;0.00;;;4.40;96.60;;;;;;4965837;28;20224;-76
2022/01/31 04:44:12;;;;;;;0.00;0.00;;;4.40;96.90;;;;;;4982396;28;20031;-76
2022/01/31 04:46:40;;;;;;;0.00;0.00;;;4.50;97.60;;;;;;4965593;28;20023;-77
2022/01/31 04:49:06;;;;;;;0.00;0.00;;;4.50;97.60;;;;;;4982924;28;20073;-74
2022/01/31 04:51:32;;;;;;;0.00;0.00;;;4.40;97.10;;;;;;4982277;28;20086;-75
2022/01/31 04:53:58;;;;;;;0.00;0.00;;;4.40;97.50;;;;;;4982719;28;20046;-76
2022/01/31 04:56:24;;;;;;;0.00;0.00;;;4.40;97.90;;;;;;4982610;28;20070;-75
2022/01/31 04:58:49;;;;;;;0.00;0.00;;;4.40;98.00;;;;;;4965459;28;20022;-76
2022/01/31 05:01:16;;;;;;;0.00;0.00;;;4.40;98.30;;;;;;4982261;28;20033;-75
2022/01/31 05:03:44;;;;;;;0.00;0.00;;;4.60;97.80;;;;;;4982498;28;20027;-76
2022/01/31 05:06:12;;;;;;;0.00;0.00;;;4.60;98.40;;;;;;4983037;28;20156;-75
2022/01/31 05:08:39;;;;;;;0.00;0.00;;;4.50;98.40;;;;;;4981531;28;20023;-78
2022/01/31 05:11:07;;;;;;;0.00;0.00;;;4.50;98.20;;;;;;4982951;28;20023;-76
2022/01/31 05:13:34;;;;;;;0.00;0.00;;;4.50;98.70;;;;;;4982197;28;20289;-75
2022/01/31 05:15:59;;;;;;;0.00;0.00;;;4.50;98.50;;;;;;4982628;28;20026;-76
2022/01/31 05:18:25;;;;;;;0.00;0.00;;;4.50;98.60;;;;;;4964776;28;20054;-76
2022/01/31 05:20:51;;;;;;;0.00;0.00;;;4.50;99.00;;;;;;4965321;28;20022;-76
2022/01/31 05:23:16;;;;;;;0.00;0.00;;;4.50;98.60;;;;;;4982122;28;20340;-77
2022/01/31 05:25:42;;;;;;;0.00;0.00;;;4.50;99.10;;;;;;4965254;28;20050;-77
2022/01/31 05:28:08;;;;;;;0.00;0.00;;;4.50;99.30;;;;;;4982373;28;20023;-77
2022/01/31 05:30:34;;;;;;;0.00;0.00;;;4.40;99.30;;;;;;4964770;28;20324;-76
2022/01/31 05:32:59;;;;;;;0.00;0.00;;;4.40;99.10;;;;;;4980938;28;20022;-77
2022/01/31 05:35:25;;;;;;;0.00;0.00;;;4.40;98.70;;;;;;4964687;28;20066;-77
2022/01/31 05:37:51;;;;;;;0.00;0.00;;;4.40;99.20;;;;;;4964825;28;20026;-77
2022/01/31 05:40:17;;;;;;;0.00;0.00;;;4.40;99.30;;;;;;4964536;28;20023;-76
2022/01/31 05:42:42;;;;;;;0.00;0.00;;;4.40;99.40;;;;;;4982271;28;20026;-77
2022/01/31 05:45:08;;;;;;;0.00;0.00;;;4.40;99.30;;;;;;4981973;28;20089;-77
2022/01/31 05:47:35;;;;;;;0.00;0.00;;;4.40;99.10;;;;;;4981525;28;20022;-76
2022/01/31 05:50:01;;;;;;;0.00;0.00;;;4.40;99.90;;;;;;4982059;28;20053;-77
2022/01/31 05:52:27;;;;;;;0.00;0.00;;;4.30;99.60;;;;;;4981408;28;20023;-77
2022/01/31 05:55:13;;;;;;;0.00;0.00;;;4.30;99.80;;;;;;4982127;28;20206;-77
2022/01/31 05:57:38;;;;;;;0.00;0.00;;;4.30;99.50;;;;;;4964507;28;20018;-76
2022/01/31 06:00:06;;;;;;;0.00;0.00;;;4.30;99.60;;;;;;4964772;28;20022;-77
2022/01/31 06:02:32;;;;;;;0.00;0.00;;;4.30;99.90;;;;;;4979944;28;20141;-76
2022/01/31 06:04:58;;;;;;;0.00;0.00;;;4.30;99.30;;;;;;4981606;28;20018;-76
2022/01/31 06:07:23;;;;;;;0.00;0.00;;;4.30;99.00;;;;;;4963820;28;20045;-75
2022/01/31 06:09:49;;;;;;;0.00;0.00;;;4.30;99.60;;;;;;4981373;28;20030;-75
2022/01/31 06:12:16;;;;;;;0.00;0.00;;;4.40;99.50;;;;;;4963628;28;20065;-75
2022/01/31 06:14:42;;;;;;;0.00;0.00;;;4.30;99.80;;;;;;4964264;28;20018;-76
2022/01/31 06:17:08;;;;;;;0.00;0.00;;;4.30;99.90;;;;;;4964194;28;20390;-79
2022/01/31 06:19:34;;;;;;;0.00;0.00;;;4.40;99.90;;;;;;4980896;28;20309;-77
2022/01/31 06:21:59;;;;;;;0.00;0.00;;;4.40;99.70;;;;;;4981071;28;20370;-77
2022/01/31 06:24:26;;;;;;;0.00;0.00;;;4.40;99.90;;;;;;4980854;28;20026;-79
2022/01/31 06:26:53;;;;;;;0.00;0.00;;;4.40;99.90;;;;;;4981376;28;20018;-74
2022/01/31 06:29:19;;;;;;;0.00;0.00;;;4.40;99.90;;;;;;4963546;28;20019;-76
2022/01/31 06:31:45;;;;;;;0.00;0.00;;;4.40;99.90;;;;;;4981534;28;20018;-75
2022/01/31 06:34:10;;;;;;;0.00;0.00;;;4.50;99.90;;;;;;4981322;28;20018;-77
2022/01/31 06:36:36;;;;;;;0.00;0.00;;;4.50;99.90;;;;;;4980347;28;20026;-75
2022/01/31 06:39:03;;;;;;;0.00;0.00;;;4.50;99.90;;;;;;4980936;28;20022;-76
2022/01/31 06:41:29;;;;;;;0.00;0.00;;;4.50;99.90;;;;;;4963289;28;20027;-75
2022/01/31 06:43:55;;;;;;;0.00;0.00;;;4.50;99.90;;;;;;4980743;28;20234;-77
2022/01/31 06:46:21;;;;;;;0.00;0.00;;;4.50;99.90;;;;;;4980305;28;20026;-73
2022/01/31 06:49:06;;;;;;;0.00;0.00;;;4.50;99.90;;;;;;4981092;28;20019;-75
2022/01/31 06:51:31;;;;;;;0.00;0.00;;;4.50;99.90;;;;;;4963041;28;20266;-78
2022/01/31 06:54:00;;;;;;;0.00;0.00;;;4.60;99.90;;;;;;4981117;28;20090;-77
2022/01/31 06:56:29;;;;;;;0.00;0.00;;;4.60;99.90;;;;;;4980996;28;20089;-77
2022/01/31 06:58:56;;;;;;;0.00;0.00;;;4.60;99.90;;;;;;4980992;28;20209;-81
2022/01/31 07:01:25;;;;;;;0.00;0.00;;;4.60;99.90;;;;;;4980445;28;20023;-79
2022/01/31 07:03:53;;;;;;;0.00;0.00;;;4.60;99.90;;;;;;4963161;28;20094;-82
2022/01/31 07:06:18;;;;;;;0.00;0.00;;;4.60;99.90;;;;;;4980353;28;20027;-77
2022/01/31 07:08:44;;;;;;;0.00;0.00;;;4.60;99.90;;;;;;4963567;28;20089;-78
2022/01/31 07:11:15;;;;;;;0.00;0.00;;;4.60;99.90;;;;;;4963426;28;20159;-78
2022/01/31 07:13:42;;;;;;;0.00;0.00;;;4.60;99.90;;;;;;4980594;28;20073;-80
2022/01/31 07:16:08;;;;;;;0.00;0.00;;;4.60;99.90;;;;;;4980673;28;20183;-76
2022/01/31 07:18:35;;;;;;;0.00;0.00;;;4.60;99.90;;;;;;4980267;28;20198;-78
2022/01/31 07:21:01;;;;;;;0.00;0.00;;;4.60;99.90;;;;;;4963424;28;20050;-78
2022/01/31 07:23:29;;;;;;;0.00;0.00;;;4.70;99.90;;;;;;4978856;28;20042;-79
2022/01/31 07:25:55;;;;;;;0.00;0.00;;;4.60;99.90;;;;;;4980813;28;20019;-78
2022/01/31 07:28:21;;;;;;;0.00;0.00;;;4.70;99.90;;;;;;4979899;28;20085;-79
2022/01/31 07:30:52;;;;;;;0.00;0.00;;;4.70;99.90;;;;;;4963299;28;20029;-79
2022/01/31 07:33:19;;;;;;;0.00;0.00;;;4.70;99.90;;;;;;4979080;28;20283;-78
2022/01/31 07:35:49;;;;;;;0.00;0.00;;;4.70;99.90;;;;;;4979659;28;20262;-78
2022/01/31 07:38:15;;;;;;;0.00;0.00;;;4.80;99.90;;;;;;4963038;28;20026;-76
2022/01/31 07:40:41;;;;;;;0.00;0.00;;;4.80;99.90;;;;;;4963398;28;20098;-79
2022/01/31 07:43:08;;;;;;;0.00;0.00;;;4.90;99.90;;;;;;4963168;28;20206;-79
2022/01/31 07:45:34;;;;;;;0.00;0.00;;;4.90;99.90;;;;;;4979875;28;20030;-80
2022/01/31 07:48:00;;;;;;;0.00;0.00;;;4.90;99.90;;;;;;4979867;28;20026;-78
2022/01/31 07:50:26;;;;;;;0.00;0.00;;;5.00;99.90;;;;;;4979746;28;20057;-80
2022/01/31 07:52:52;;;;;;;0.00;0.00;;;5.00;99.90;;;;;;4963182;28;20034;-80
2022/01/31 07:55:36;;;;;;;0.00;0.00;;;5.00;99.90;;;;;;4962592;28;20018;-79
2022/01/31 07:58:03;;;;;;;0.00;0.00;;;4.90;99.90;;;;;;4966758;28;20022;-78
2022/01/31 08:00:29;;;;;;;0.00;0.00;;;4.90;99.90;;;;;;4966159;28;20328;-79
2022/01/31 08:02:56;;;;;;;0.00;0.00;;;4.90;99.90;;;;;;4983946;28;20034;-81
2022/01/31 08:05:22;;;;;;;0.00;0.00;;;4.90;99.90;;;;;;4966197;28;20026;-79
2022/01/31 08:07:48;;;;;;;0.00;0.00;;;4.90;99.90;;;;;;4966585;28;20189;-79
2022/01/31 08:10:16;;;;;;;0.00;0.00;;;4.90;99.90;;;;;;4983453;28;20030;-76
2022/01/31 08:12:42;;;;;;;0.00;0.00;;;4.90;99.90;;;;;;4983504;28;20027;-76
2022/01/31 08:15:14;;;;;;;0.00;0.00;;;4.90;99.90;;;;;;4982488;28;20197;-78
2022/01/31 08:17:40;;;;;;;0.00;0.00;;;4.90;99.90;;;;;;4983031;28;20023;-81
2022/01/31 08:20:07;;;;;;;0.00;0.00;;;4.90;99.90;;;;;;4966426;28;20089;-81
2022/01/31 08:22:33;;;;;;;0.00;0.00;;;4.90;99.90;;;;;;4964446;28;20069;-80
2022/01/31 08:24:59;;;;;;;0.00;0.00;;;4.90;99.90;;;;;;4966101;28;20019;-79
2022/01/31 08:27:25;;;;;;;0.00;0.00;;;4.90;99.90;;;;;;4965585;28;20031;-79
2022/01/31 08:29:58;;;;;;;0.00;0.00;;;4.90;99.90;;;;;;4966056;28;20046;-78
2022/01/31 08:32:33;;;;;;;0.00;0.00;;;5.00;99.90;;;;;;4965412;28;20029;-80
2022/01/31 08:37:44;;;;;;;0.00;0.00;;;4.90;99.90;;;;;;4981835;28;20094;-76
2022/01/31 08:40:10;;;;;;;0.00;0.00;;;5.00;99.90;;;;;;4965557;28;20022;-81
2022/01/31 08:42:36;;;;;;;0.00;0.00;;;5.00;99.80;;;;;;4983226;28;20027;-82
2022/01/31 08:45:03;;;;;;;0.00;0.00;;;5.10;99.90;;;;;;4982823;28;20194;-84
2022/01/31 08:47:29;;;;;;;0.00;0.00;;;5.00;99.90;;;;;;4982389;28;20077;-82
2022/01/31 08:49:55;;;;;;;0.00;0.00;;;5.00;99.90;;;;;;4982535;28;20310;-79
2022/01/31 08:52:20;;;;;;;0.00;0.00;;;5.10;99.90;;;;;;4981805;28;20023;-77
2022/01/31 08:54:46;;;;;;;0.00;0.00;;;5.10;99.90;;;;;;4982479;28;20027;-78
2022/01/31 08:57:12;;;;;;;0.00;0.00;;;5.10;99.90;;;;;;4980993;28;20018;-79
2022/01/31 08:59:43;;;;;;;0.00;0.00;;;5.00;99.80;;;;;;4981909;28;20027;-79
2022/01/31 09:02:14;;;;;;;0.00;0.00;;;5.00;99.90;;;;;;4965542;28;20029;-78
2022/01/31 09:04:49;;;;;;;0.00;0.00;;;5.10;99.90;;;;;;4965537;28;20030;-81
2022/01/31 09:07:24;;;;;;;0.00;0.00;;;5.10;99.90;;;;;;4971984;28;20023;-74
2022/01/31 09:09:54;;;;;;;0.00;0.00;;;5.10;99.90;;;;;;4981288;28;20023;-78
2022/01/31 09:12:30;;;;;;;0.00;0.00;;;5.10;99.90;;;;;;4981974;28;20018;-76
2022/01/31 09:14:56;;;;;;;0.00;0.00;;;5.10;99.90;;;;;;4983099;28;20023;-80
2022/01/31 09:17:22;;;;;;;0.00;0.00;;;5.20;99.90;;;;;;4964528;28;20073;-76
2022/01/31 09:19:48;;;;;;;0.00;0.00;;;5.20;99.90;;;;;;4964649;28;20061;-79
2022/01/31 09:22:13;;;;;;;0.00;0.00;;;5.20;99.90;;;;;;4963626;28;20113;-80
2022/01/31 09:24:41;;;;;;;0.00;0.00;;;5.20;99.90;;;;;;4980556;28;20102;-75
2022/01/31 09:27:08;;;;;;;0.00;0.00;;;5.20;99.90;;;;;;4964465;28;20023;-85
2022/01/31 09:29:34;;;;;;;0.00;0.00;;;5.20;99.90;;;;;;4962998;28;20026;-82
2022/01/31 09:32:03;;;;;;;0.00;0.00;;;5.20;99.90;;;;;;4962244;28;20045;-78
2022/01/31 09:34:30;;;;;;;0.00;0.00;;;5.20;99.90;;;;;;4980786;28;20229;-78
2022/01/31 09:36:57;;;;;;;0.00;0.00;;;5.10;99.90;;;;;;4981333;28;20065;-83
2022/01/31 09:39:23;;;;;;;0.00;0.00;;;5.10;99.90;;;;;;4963568;28;20155;-83
2022/01/31 09:41:54;;;;;;;0.00;0.00;;;5.10;99.90;;;;;;4979482;28;20065;-84
2022/01/31 09:44:27;;;;;;;0.00;0.00;;;5.20;99.90;;;;;;4963721;28;20093;-78
2022/01/31 09:47:06;;;;;;;0.00;0.00;;;5.10;99.90;;;;;;4963674;28;20019;-83
2022/01/31 09:49:34;;;;;;;0.00;0.00;;;5.10;99.90;;;;;;4981433;28;20018;-85
2022/01/31 09:52:00;;;;;;;0.00;0.00;;;5.20;99.90;;;;;;4963919;28;20023;-81
2022/01/31 09:54:27;;;;;;;0.00;0.00;;;5.20;99.90;;;;;;4980738;28;20078;-86
2022/01/31 09:56:54;;;;;;;0.00;0.00;;;5.20;99.90;;;;;;4980748;28;20023;-84
2022/01/31 09:59:20;;;;;;;0.00;0.00;;;5.20;99.90;;;;;;4980247;28;20356;-80
2022/01/31 10:01:55;;;;;;;0.00;0.00;;;5.20;99.90;;;;;;4981058;28;20086;-85
2022/01/31 10:04:24;;;;;;;0.00;0.00;;;5.20;99.90;;;;;;4963656;28;20364;-79
2022/01/31 10:06:55;;;;;;;0.00;0.00;;;5.20;99.90;;;;;;4980933;28;20046;-86
2022/01/31 10:09:28;;;;;;;0.00;0.00;;;5.20;99.90;;;;;;4981944;28;20022;-76
2022/01/31 10:12:06;;;;;;;0.00;0.00;;;5.20;99.90;;;;;;4980973;28;20019;-71
2022/01/31 10:17:41;;;;;;;0.00;0.00;;;5.60;99.90;;;;;;4980249;28;20053;-79
2022/01/31 10:20:20;;;;;;;0.00;0.00;;;5.80;99.90;;;;;;4962727;28;20053;-84
2022/01/31 10:22:46;;;;;;;;;;;5.90;99.90;;;;;;4959496;29;20055;-79
2022/01/31 10:25:15;;;;;;;0.00;0.00;;;5.80;99.90;;;;;;4960533;28;19930;-85
2022/01/31 10:27:47;;;;;;;0.00;0.00;;;5.80;99.90;;;;;;4958966;29;20081;-85
2022/01/31 10:30:26;;;;;;;0.00;0.00;;;5.70;99.90;;;;;;4959341;29;20098;-85
2022/01/31 10:32:55;;;;;;;0.00;0.00;;;5.70;99.90;;;;;;4958944;29;20054;-78
2022/01/31 10:35:23;;;;;;;0.00;0.00;;;5.70;99.90;;;;;;4960096;28;20022;-77
2022/01/31 10:37:54;;;;;;;0.10;0.10;;;5.70;99.90;;;;;;4958613;29;20024;-78
2022/01/31 10:56:58;;;;;;;0.00;0.00;;;5.50;99.90;;;;;;4959296;29;20019;-85
2022/01/31 10:59:33;;;;;;;0.00;0.00;;;5.50;99.90;;;;;;4959394;28;20067;-77
2022/01/31 11:02:01;;;;;;;0.00;0.00;;;5.50;99.90;;;;;;4958891;29;20286;-78
2022/01/31 11:04:33;;;;;;;0.00;0.00;;;5.50;99.90;;;;;;4959149;29;20050;-82
2022/01/31 11:07:02;;;;;;;1.20;1.20;;;5.50;99.90;;;;;;4960177;28;20043;-78
2022/01/31 11:09:31;;;;;;;0.10;0.10;;;5.50;99.90;;;;;;4958993;29;20030;-78
2022/01/31 11:11:57;;;;;;;0.10;0.00;;;5.50;99.90;;;;;;4975393;28;20023;-84
2022/01/31 11:14:22;;;;;;;0.22;0.22;;;5.40;99.90;;;;;;4961437;28;20165;-79
2022/01/31 11:16:49;;;;;;;0.00;0.00;;;5.50;99.90;;;;;;4961024;29;20030;-78
2022/01/31 11:19:22;;;;;;;0.00;0.00;;;5.50;99.90;;;;;;4958698;28;20050;-80
2022/01/31 11:21:49;;;;;;;0.00;0.00;;;5.50;99.90;;;;;;4956137;28;20062;-82
2022/01/31 11:24:26;;;;;;;0.00;0.00;;;5.50;99.90;;;;;;4958866;29;20055;-85
2022/01/31 11:26:56;;;;;;;0.00;0.00;;;5.60;99.90;;;;;;4958477;29;20031;-87
2022/01/31 11:29:23;;;;;;;0.00;0.00;;;5.60;99.90;;;;;;4958042;28;20035;-77
2022/01/31 11:31:49;;;;;;;0.00;0.00;;;5.60;99.90;;;;;;4961186;29;20045;-74
2022/01/31 11:34:15;;;;;;;0.00;0.00;;;5.50;99.90;;;;;;4961942;29;20050;-76
2022/01/31 11:36:42;;;;;;;0.00;0.00;;;5.60;99.90;;;;;;4962080;28;20290;-88
2022/01/31 11:39:11;;;;;;;0.00;0.00;;;5.60;99.90;;;;;;4962737;28;20138;-79
2022/01/31 11:41:43;;;;;;;0.00;0.00;;;5.60;99.90;;;;;;4960376;29;20023;-82
2022/01/31 11:44:29;;;;;;;0.00;0.00;;;5.60;99.90;;;;;;4960901;29;20102;-82
2022/01/31 11:46:57;;;;;;;0.00;0.00;;;5.70;99.90;;;;;;4957598;29;20082;-79
2022/01/31 11:49:23;;;;;;;0.00;0.00;;;5.70;99.90;;;;;;4960557;28;20322;-78
2022/01/31 11:52:02;;;;;;;0.00;0.00;;;5.80;99.90;;;;;;4961255;29;20408;-79
2022/01/31 11:54:28;;;;;;;0.00;0.00;;;5.90;99.90;;;;;;4960486;29;20023;-86
2022/01/31 11:56:54;;;;;;;0.00;0.00;;;5.90;99.90;;;;;;4962251;28;20058;-85
2022/01/31 11:59:24;;;;;;;0.00;0.00;;;5.90;99.90;;;;;;4960230;29;20074;-77
2022/01/31 12:01:52;;;;;;;0.00;0.00;;;5.90;99.90;;;;;;4961227;28;20094;-84
2022/01/31 12:04:22;;;;;;;0.10;0.00;;;6.00;99.90;;;;;;4962524;29;20034;-77
2022/01/31 12:06:48;;;;;;;0.00;0.00;;;6.10;99.90;;;;;;4961046;29;20019;-79
2022/01/31 12:09:17;;;;;;;0.35;0.35;;;6.20;99.90;;;;;;4962427;28;20023;-84
2022/01/31 12:11:53;;;;;;;0.60;0.47;;;6.30;99.90;;;;;;4961591;28;20019;-85
2022/01/31 12:14:30;;;;;;;0.00;0.00;;;6.30;99.90;;;;;;4961367;29;20155;-79
2022/01/31 12:17:17;;;;;;;0.00;0.00;;;6.30;99.90;;;;;;4961098;29;20066;-87
2022/01/31 12:20:00;;;;;;;0.00;0.00;;;6.30;99.90;;;;;;4960404;29;20074;-84
2022/01/31 12:22:47;;;;;;;0.00;0.00;;;6.30;99.90;;;;;;4931412;28;1178472;-89
2022/01/31 12:25:29;;;;;;;0.00;0.00;;;6.30;99.90;;;;;;4983124;28;20034;-88
2022/01/31 12:27:56;;;;;;;0.00;0.00;;;6.40;99.90;;;;;;4965212;28;20325;-86
2022/01/31 12:30:36;;;;;;;0.00;0.00;;;6.30;99.90;;;;;;4981180;28;20018;-81
2022/01/31 12:33:03;;;;;;;0.00;0.00;;;6.30;99.90;;;;;;4963043;28;20026;-91
2022/01/31 12:35:38;;;;;;;0.00;0.00;;;6.30;99.90;;;;;;4962111;28;20019;-84
2022/01/31 12:38:06;;;;;;;0.00;0.00;;;6.20;99.90;;;;;;4978161;28;20111;-81
2022/01/31 12:40:40;;;;;;;0.00;0.00;;;6.20;99.90;;;;;;4976543;28;20023;-88
2022/01/31 12:46:06;;;;;;;0.00;0.00;;;6.30;99.90;;;;;;4982661;28;20126;-89
2022/01/31 12:48:33;;;;;;;0.00;0.00;;;6.30;99.90;;;;;;4964941;28;20106;-80
2022/01/31 12:51:05;;;;;;;0.00;0.00;;;6.30;99.90;;;;;;4965422;28;20023;-84
2022/01/31 12:56:26;;;;;;;0.00;0.00;;;6.30;99.90;;;;;;4982010;28;20145;-74
2022/01/31 12:58:51;;;;;;;0.00;0.00;;;6.30;99.90;;;;;;4964158;28;20327;-82
2022/01/31 13:01:22;;;;;;;0.00;0.00;;;6.30;99.90;;;;;;4964842;28;20042;-89
2022/01/31 13:04:02;;;;;;;0.00;0.00;;;6.40;99.90;;;;;;4981152;28;20043;-81
2022/01/31 13:06:39;;;;;;;0.00;0.00;;;6.40;99.90;;;;;;4980683;28;20019;-81
2022/01/31 13:09:10;;;;;;;0.00;0.00;;;6.40;99.90;;;;;;4981548;28;20022;-83
2022/01/31 13:11:37;;;;;;;0.00;0.00;;;6.40;99.90;;;;;;4980614;28;20086;-85
2022/01/31 13:14:06;;;;;;;0.00;0.00;;;6.40;99.90;;;;;;4981374;28;20022;-85
2022/01/31 13:16:57;;;;;;;0.00;0.00;;;6.40;99.90;;;;;;4979640;28;20090;-83
2022/01/31 13:19:24;;;;;;;0.00;0.00;;;6.40;99.90;;;;;;4981427;28;20208;-80
2022/01/31 13:21:52;;;;;;;0.00;0.00;;;6.40;99.90;;;;;;4981541;28;20070;-88
2022/01/31 13:24:20;;;;;;;0.00;0.00;;;6.30;99.90;;;;;;4982146;28;20109;-82
2022/01/31 13:26:52;;;;;;;0.10;0.10;;;6.30;99.90;;;;;;4963017;28;20034;-90
2022/01/31 13:29:33;;;;;;;0.00;0.00;;;6.30;99.90;;;;;;4979692;28;20127;-84
2022/01/31 13:32:11;;;;;;;0.00;0.00;;;6.30;99.90;;;;;;4963181;28;20090;-74